Time;durP1;ratioP1;P1;durP2;ratioP2;P2;SDS_P1;SDS_P2;PMS_P1;PMS_P2;Temp;Humidity;BMP_temperature;BMP_pressure;BME280_temperature;BME280_humidity;BME280_pressure;Samples;Min_cycle;Max_cycle;Signal;HPM_P1;HPM_P2
2022/12/13 00:00:18;;;;;;;31.95;28.48;;;-4.60;99.90;;;;;;6211900;23;20410;-77
2022/12/13 00:02:46;;;;;;;34.67;29.42;;;-4.80;99.90;;;;;;6212218;23;20179;-77
2022/12/13 00:05:13;;;;;;;34.85;30.77;;;-4.80;99.90;;;;;;6211766;23;20186;-76
2022/12/13 00:07:40;;;;;;;36.80;30.00;;;-4.70;99.90;;;;;;6212920;23;20179;-76
2022/12/13 00:10:08;;;;;;;34.67;30.60;;;-4.60;99.90;;;;;;6212744;23;20187;-76
2022/12/13 00:12:34;;;;;;;35.53;30.13;;;-4.60;99.90;;;;;;6212283;23;20183;-77
2022/12/13 00:15:02;;;;;;;37.72;32.08;;;-4.80;99.90;;;;;;6212368;23;20414;-74
2022/12/13 00:17:31;;;;;;;32.78;27.00;;;-4.90;99.90;;;;;;6211996;23;20182;-77
2022/12/13 00:19:58;;;;;;;41.47;32.58;;;-4.90;99.90;;;;;;6211736;23;20175;-77
2022/12/13 00:22:25;;;;;;;35.55;29.90;;;-4.80;99.90;;;;;;6212121;23;20183;-77
2022/12/13 00:24:54;;;;;;;37.20;28.10;;;-4.70;99.90;;;;;;6212143;23;20182;-76
2022/12/13 00:27:20;;;;;;;34.00;30.48;;;-4.80;99.90;;;;;;6211809;23;20413;-76
2022/12/13 00:29:47;;;;;;;34.92;28.92;;;-4.80;99.90;;;;;;6212256;23;20182;-76
2022/12/13 00:32:15;;;;;;;43.08;32.45;;;-4.90;99.90;;;;;;6212169;23;20204;-76
2022/12/13 00:34:42;;;;;;;33.97;30.27;;;-4.90;99.90;;;;;;6212346;23;20175;-76
2022/12/13 00:37:09;;;;;;;34.88;31.15;;;-5.00;99.90;;;;;;6211662;23;20195;-76
2022/12/13 00:39:35;;;;;;;38.67;31.20;;;-4.90;99.90;;;;;;6211977;23;20160;-75
2022/12/13 00:42:02;;;;;;;39.92;31.70;;;-5.00;99.90;;;;;;6211703;23;20178;-76
2022/12/13 00:44:30;;;;;;;35.92;31.02;;;-5.10;99.90;;;;;;6211836;23;20514;-76
2022/12/13 00:46:56;;;;;;;38.97;31.70;;;-5.20;99.90;;;;;;6211426;23;20191;-76
2022/12/13 00:49:25;;;;;;;52.75;34.35;;;-5.20;99.90;;;;;;6211681;23;20413;-76
2022/12/13 00:51:51;;;;;;;41.13;34.83;;;-5.10;99.90;;;;;;6211814;23;20205;-76
2022/12/13 00:54:18;;;;;;;34.20;30.27;;;-5.10;99.90;;;;;;6211902;23;20499;-76
2022/12/13 00:56:45;;;;;;;36.60;31.55;;;-5.10;99.90;;;;;;6211590;23;20174;-76
2022/12/13 00:59:14;;;;;;;33.55;30.08;;;-5.10;99.90;;;;;;6211662;23;20197;-76
2022/12/13 01:01:40;;;;;;;31.98;27.98;;;-5.10;99.90;;;;;;6211473;23;20224;-76
2022/12/13 01:04:07;;;;;;;36.40;31.50;;;-5.30;99.90;;;;;;6211753;23;20177;-75
2022/12/13 01:06:37;;;;;;;37.17;30.98;;;-5.50;99.90;;;;;;6211718;23;20186;-74
2022/12/13 01:09:06;;;;;;;33.92;30.33;;;-5.50;99.90;;;;;;6211691;23;20163;-76
2022/12/13 01:11:33;;;;;;;35.58;31.75;;;-5.50;99.90;;;;;;6211211;23;20198;-74
2022/12/13 01:14:00;;;;;;;36.00;30.10;;;-5.60;99.90;;;;;;6211517;23;20176;-76
2022/12/13 01:16:27;;;;;;;32.97;29.00;;;-5.50;99.90;;;;;;6211113;23;20182;-75
2022/12/13 01:18:54;;;;;;;34.15;30.75;;;-5.60;99.90;;;;;;6211765;23;20406;-76
2022/12/13 01:21:21;;;;;;;33.72;29.80;;;-5.60;99.90;;;;;;6211347;23;20232;-76
2022/12/13 01:23:50;;;;;;;31.95;28.55;;;-5.70;99.90;;;;;;6210771;23;20638;-74
2022/12/13 01:26:19;;;;;;;35.90;29.67;;;-5.70;99.90;;;;;;6211281;23;20186;-75
2022/12/13 01:28:46;;;;;;;38.42;31.83;;;-5.60;99.90;;;;;;6211437;23;20180;-76
2022/12/13 01:31:15;;;;;;;35.42;31.50;;;-5.50;99.90;;;;;;6211202;23;20199;-76
2022/12/13 01:33:43;;;;;;;40.45;32.42;;;-5.60;99.90;;;;;;6211241;23;20175;-75
2022/12/13 01:36:12;;;;;;;38.85;31.73;;;-5.60;99.90;;;;;;6211742;23;20221;-77
2022/12/13 01:38:39;;;;;;;35.50;28.20;;;-5.70;99.90;;;;;;6211118;23;20198;-75
2022/12/13 01:41:08;;;;;;;41.45;34.40;;;-5.80;99.90;;;;;;6211554;23;20174;-75
2022/12/13 01:43:51;;;;;;;40.00;31.00;;;-5.60;99.90;;;;;;6211854;23;20183;-75
2022/12/13 01:46:19;;;;;;;35.65;31.77;;;-5.60;99.90;;;;;;6211301;23;20493;-75
2022/12/13 01:48:51;;;;;;;36.30;31.45;;;-5.50;99.90;;;;;;6211151;23;20560;-75
2022/12/13 01:51:21;;;;;;;37.85;29.00;;;-5.60;99.90;;;;;;6210724;23;20193;-75
2022/12/13 01:53:50;;;;;;;39.60;28.95;;;-5.60;99.90;;;;;;6211235;23;20185;-74
2022/12/13 01:56:23;;;;;;;39.60;32.42;;;-5.50;99.90;;;;;;6210859;23;20183;-75
2022/12/13 01:58:53;;;;;;;40.78;32.10;;;-5.50;99.90;;;;;;6211601;23;20483;-75
2022/12/13 02:01:20;;;;;;;37.13;32.53;;;-5.50;99.90;;;;;;6211462;23;20207;-75
2022/12/13 02:03:47;;;;;;;40.55;31.85;;;-5.50;99.90;;;;;;6210633;23;20665;-75
2022/12/13 02:06:17;;;;;;;35.80;31.42;;;-5.60;99.90;;;;;;6210792;23;20178;-75
2022/12/13 02:08:45;;;;;;;39.55;29.45;;;-5.70;99.90;;;;;;6211384;23;20343;-75
2022/12/13 02:11:14;;;;;;;34.70;30.95;;;-5.80;99.90;;;;;;6211217;23;20197;-75
2022/12/13 02:13:42;;;;;;;34.67;29.52;;;-5.80;99.90;;;;;;6211167;23;20181;-75
2022/12/13 02:16:18;;;;;;;39.33;33.20;;;-5.80;99.90;;;;;;6211406;23;20174;-74
2022/12/13 02:18:56;;;;;;;36.65;30.95;;;-5.80;99.90;;;;;;6210960;23;20158;-74
2022/12/13 02:21:33;;;;;;;34.75;30.77;;;-5.80;99.90;;;;;;6211534;23;20163;-75
2022/12/13 02:24:25;;;;;;;33.15;29.85;;;-5.80;99.90;;;;;;6211271;23;20162;-75
2022/12/13 02:27:00;;;;;;;36.42;29.92;;;-5.80;99.90;;;;;;6211466;23;20175;-75
2022/12/13 02:30:02;;;;;;;35.25;31.02;;;-5.80;99.90;;;;;;6210683;23;20170;-75
2022/12/13 02:36:01;;;;;;;34.83;30.30;;;-5.90;99.90;;;;;;6212067;23;20180;-76
2022/12/13 02:38:35;;;;;;;33.03;29.45;;;-5.90;99.90;;;;;;6212637;23;20209;-76
2022/12/13 02:41:11;;;;;;;35.75;31.33;;;-6.00;99.90;;;;;;6212783;23;20460;-75
2022/12/13 02:43:45;;;;;;;35.17;30.58;;;-5.90;99.90;;;;;;6212877;23;20624;-75
2022/12/13 02:46:12;;;;;;;35.78;28.92;;;-5.90;99.90;;;;;;6212589;23;20158;-75
2022/12/13 02:48:42;;;;;;;30.67;27.52;;;-6.00;99.90;;;;;;6212948;23;20537;-75
2022/12/13 02:51:12;;;;;;;33.17;29.40;;;-6.00;99.90;;;;;;6212913;23;20174;-74
2022/12/13 02:53:41;;;;;;;34.28;29.83;;;-6.00;99.90;;;;;;6213088;23;20159;-75
2022/12/13 02:56:07;;;;;;;35.63;29.30;;;-5.90;99.90;;;;;;6213173;23;20186;-75
2022/12/13 02:58:39;;;;;;;34.92;28.65;;;-5.90;99.90;;;;;;6212705;23;20494;-75
2022/12/13 03:01:19;;;;;;;31.77;28.55;;;-6.00;99.90;;;;;;6212736;23;20609;-75
2022/12/13 03:03:54;;;;;;;34.85;27.92;;;-6.10;99.90;;;;;;6212343;23;20639;-75
2022/12/13 03:06:30;;;;;;;33.72;29.33;;;-6.10;99.90;;;;;;6213188;23;20518;-75
2022/12/13 03:09:14;;;;;;;32.60;28.17;;;-6.00;99.90;;;;;;6212698;23;20166;-76
2022/12/13 03:14:52;;;;;;;37.55;30.13;;;-6.00;99.90;;;;;;6212459;23;20160;-76
2022/12/13 03:17:22;;;;;;;32.40;28.92;;;-6.00;99.90;;;;;;6212287;23;20162;-76
2022/12/13 03:19:51;;;;;;;37.22;28.83;;;-6.00;99.90;;;;;;6213171;23;20158;-76
2022/12/13 03:22:20;;;;;;;37.28;28.75;;;-6.10;99.90;;;;;;6212154;23;20179;-76
2022/12/13 03:24:47;;;;;;;35.58;29.92;;;-6.10;99.90;;;;;;6212204;23;20184;-76
2022/12/13 03:27:13;;;;;;;36.50;29.02;;;-6.10;99.90;;;;;;6212000;23;20840;-77
2022/12/13 03:29:40;;;;;;;33.80;30.20;;;-6.10;99.90;;;;;;6212578;23;20198;-77
2022/12/13 03:32:07;;;;;;;34.80;29.67;;;-6.10;99.90;;;;;;6212712;23;20220;-76
2022/12/13 03:34:34;;;;;;;32.22;29.05;;;-6.10;99.90;;;;;;6212622;23;20181;-76
2022/12/13 03:37:00;;;;;;;33.92;30.08;;;-6.10;99.90;;;;;;6211913;23;20225;-76
2022/12/13 03:39:28;;;;;;;37.03;31.50;;;-6.10;99.90;;;;;;6212545;23;20158;-76
2022/12/13 03:41:55;;;;;;;36.28;29.73;;;-6.10;99.90;;;;;;6212169;23;20172;-75
2022/12/13 03:44:22;;;;;;;32.13;28.92;;;-6.10;99.90;;;;;;6212814;23;20176;-76
2022/12/13 03:46:49;;;;;;;37.30;29.25;;;-6.00;99.90;;;;;;6212387;23;20633;-76
2022/12/13 03:49:15;;;;;;;38.75;30.85;;;-5.90;99.90;;;;;;6212160;23;20555;-75
2022/12/13 03:51:42;;;;;;;30.75;27.45;;;-6.00;99.90;;;;;;6212057;23;20507;-76
2022/12/13 03:54:09;;;;;;;36.35;29.85;;;-5.90;99.90;;;;;;6212313;23;20178;-76
2022/12/13 03:56:37;;;;;;;38.13;29.98;;;-6.00;99.90;;;;;;6212414;23;20173;-76
2022/12/13 03:59:04;;;;;;;36.15;29.40;;;-6.10;99.90;;;;;;6212469;23;20237;-76
2022/12/13 04:01:31;;;;;;;42.58;32.42;;;-6.00;99.90;;;;;;6211812;23;20186;-76
2022/12/13 04:03:57;;;;;;;40.50;29.63;;;-5.90;99.90;;;;;;6212061;23;20233;-75
2022/12/13 04:06:24;;;;;;;32.90;29.40;;;-6.00;99.90;;;;;;6212112;23;20634;-77
2022/12/13 04:08:51;;;;;;;31.33;28.15;;;-6.00;99.90;;;;;;6212055;23;20185;-77
2022/12/13 04:14:04;;;;;;;33.00;29.55;;;-6.00;99.90;;;;;;6212179;23;20165;-76
2022/12/13 04:16:31;;;;;;;32.85;28.38;;;-6.10;99.90;;;;;;6212087;23;20174;-75
2022/12/13 04:18:57;;;;;;;34.10;28.42;;;-6.00;99.90;;;;;;6211874;23;20173;-76
2022/12/13 04:21:25;;;;;;;31.08;27.90;;;-6.00;99.90;;;;;;6212242;23;20181;-75
2022/12/13 04:23:51;;;;;;;33.03;29.52;;;-6.00;99.90;;;;;;6212432;23;20180;-75
2022/12/13 04:26:18;;;;;;;32.70;29.27;;;-5.90;99.90;;;;;;6212416;23;20205;-75
2022/12/13 04:28:45;;;;;;;38.20;29.30;;;-6.00;99.90;;;;;;6210337;23;20387;-74
2022/12/13 04:31:13;;;;;;;38.58;28.65;;;-6.10;99.90;;;;;;6212366;23;20184;-75
2022/12/13 04:33:40;;;;;;;31.77;28.23;;;-6.10;99.90;;;;;;6211773;23;20198;-75
2022/12/13 04:36:07;;;;;;;40.92;28.52;;;-6.10;99.90;;;;;;6212044;23;20198;-75
2022/12/13 04:38:34;;;;;;;36.78;29.95;;;-6.10;99.90;;;;;;6211629;23;20202;-75
2022/12/13 04:41:06;;;;;;;33.92;28.65;;;-6.20;99.90;;;;;;6211652;23;20173;-74
2022/12/13 04:43:33;;;;;;;35.88;29.23;;;-6.20;99.90;;;;;;6211683;23;20170;-75
2022/12/13 04:46:00;;;;;;;33.40;28.42;;;-6.20;99.90;;;;;;6211760;23;20664;-76
2022/12/13 04:48:28;;;;;;;30.88;27.30;;;-6.10;99.90;;;;;;6211489;23;20175;-76
2022/12/13 04:50:54;;;;;;;31.00;26.15;;;-6.10;99.90;;;;;;6211481;23;20178;-77
2022/12/13 04:53:21;;;;;;;39.72;29.63;;;-6.20;99.90;;;;;;6211792;23;20198;-76
2022/12/13 04:55:48;;;;;;;33.25;27.33;;;-6.30;99.90;;;;;;6211390;23;20208;-76
2022/12/13 04:58:14;;;;;;;31.83;27.92;;;-6.20;99.90;;;;;;6211188;23;20891;-76
2022/12/13 05:00:41;;;;;;;37.22;28.15;;;-6.30;99.90;;;;;;6211423;23;20180;-75
2022/12/13 05:03:08;;;;;;;38.30;28.63;;;-6.20;99.90;;;;;;6211693;23;20169;-76
2022/12/13 05:05:38;;;;;;;30.35;27.20;;;-6.20;99.90;;;;;;6211576;23;20513;-75
2022/12/13 05:08:05;;;;;;;37.88;30.75;;;-6.20;99.90;;;;;;6211734;23;20160;-76
2022/12/13 05:10:32;;;;;;;29.50;26.60;;;-6.10;99.90;;;;;;6211434;23;20204;-76
2022/12/13 05:12:59;;;;;;;35.42;28.98;;;-6.20;99.90;;;;;;6211218;23;20220;-76
2022/12/13 05:15:26;;;;;;;30.30;26.90;;;-6.30;99.90;;;;;;6211337;23;20174;-77
2022/12/13 05:17:53;;;;;;;35.42;27.13;;;-6.30;99.90;;;;;;6211661;23;20182;-74
2022/12/13 05:20:19;;;;;;;42.00;29.60;;;-6.40;99.90;;;;;;6211124;23;20178;-75
2022/12/13 05:22:47;;;;;;;37.15;26.85;;;-6.40;99.90;;;;;;6211589;23;20336;-76
2022/12/13 05:25:14;;;;;;;36.47;29.13;;;-6.30;99.90;;;;;;6211202;23;20174;-74
2022/12/13 05:27:41;;;;;;;33.13;29.52;;;-6.20;99.90;;;;;;6211331;23;20174;-75
2022/12/13 05:30:09;;;;;;;29.23;25.85;;;-6.10;99.90;;;;;;6211405;23;20655;-75
2022/12/13 05:32:37;;;;;;;33.30;29.88;;;-6.20;99.90;;;;;;6211671;23;20205;-76
2022/12/13 05:35:04;;;;;;;33.30;27.73;;;-6.20;99.90;;;;;;6210880;23;20702;-75
2022/12/13 05:37:31;;;;;;;30.25;27.00;;;-6.20;99.90;;;;;;6210698;23;20217;-76
2022/12/13 05:39:59;;;;;;;29.38;26.30;;;-6.30;99.90;;;;;;6210977;23;20174;-75
2022/12/13 05:42:26;;;;;;;28.45;25.48;;;-6.30;99.90;;;;;;6210836;23;20637;-75
2022/12/13 05:44:53;;;;;;;32.85;28.95;;;-6.20;99.90;;;;;;6211363;23;20184;-75
2022/12/13 05:47:20;;;;;;;30.35;26.77;;;-6.30;99.90;;;;;;6210773;23;20188;-76
2022/12/13 05:49:46;;;;;;;36.45;28.08;;;-6.30;99.90;;;;;;6210761;23;20185;-77
2022/12/13 05:52:17;;;;;;;36.47;28.17;;;-6.30;99.90;;;;;;6210838;23;20198;-75
2022/12/13 05:54:43;;;;;;;36.88;29.00;;;-6.30;99.90;;;;;;6210897;23;20185;-76
2022/12/13 05:57:11;;;;;;;27.25;24.52;;;-6.20;99.90;;;;;;6211464;23;20188;-76
2022/12/13 05:59:38;;;;;;;31.92;26.52;;;-6.10;99.90;;;;;;6211063;23;20642;-76
2022/12/13 06:02:05;;;;;;;33.28;28.30;;;-6.10;99.90;;;;;;6211409;23;20515;-76
2022/12/13 06:04:32;;;;;;;33.08;26.65;;;-6.20;99.90;;;;;;6211317;23;20196;-75
2022/12/13 06:06:59;;;;;;;38.13;28.98;;;-6.10;99.90;;;;;;6211100;23;20174;-75
2022/12/13 06:09:25;;;;;;;30.67;27.52;;;-6.20;99.90;;;;;;6211121;23;20178;-75
2022/12/13 06:11:52;;;;;;;37.22;29.45;;;-6.20;99.90;;;;;;6213043;23;20265;-76
2022/12/13 06:14:20;;;;;;;32.55;27.60;;;-6.10;99.90;;;;;;6213646;23;20182;-74
2022/12/13 06:16:47;;;;;;;31.65;27.75;;;-6.20;99.90;;;;;;6213261;23;20570;-76
2022/12/13 06:19:14;;;;;;;35.58;29.55;;;-6.30;99.90;;;;;;6213295;23;20560;-77
2022/12/13 06:21:41;;;;;;;37.65;31.15;;;-6.10;99.90;;;;;;6213288;23;20546;-76
2022/12/13 06:24:07;;;;;;;34.45;28.33;;;-6.10;99.90;;;;;;6213810;23;20171;-75
2022/12/13 06:26:34;;;;;;;34.92;28.17;;;-6.00;99.90;;;;;;6212813;23;20184;-76
2022/12/13 06:29:01;;;;;;;36.10;32.80;;;-6.10;99.90;;;;;;6212591;23;20403;-76
2022/12/13 06:31:29;;;;;;;41.55;27.80;;;-6.10;99.90;;;;;;6212964;23;20174;-76
2022/12/13 06:33:56;;;;;;;30.20;26.85;;;-6.10;99.90;;;;;;6212914;23;20203;-75
2022/12/13 06:36:22;;;;;;;36.85;29.02;;;-6.10;99.90;;;;;;6212711;23;20198;-75
2022/12/13 06:38:49;;;;;;;39.58;30.70;;;-6.00;99.90;;;;;;6212535;23;20219;-75
2022/12/13 06:41:17;;;;;;;35.92;28.50;;;-6.00;99.90;;;;;;6212788;23;20185;-75
2022/12/13 06:43:44;;;;;;;35.50;29.08;;;-6.10;99.90;;;;;;6212832;23;20216;-75
2022/12/13 06:46:11;;;;;;;35.58;28.85;;;-6.20;99.90;;;;;;6213108;23;20185;-76
2022/12/13 06:48:40;;;;;;;38.45;30.80;;;-6.10;99.90;;;;;;6213175;23;20175;-76
2022/12/13 06:51:08;;;;;;;33.63;29.20;;;-6.10;99.90;;;;;;6213196;23;20178;-74
2022/12/13 06:53:36;;;;;;;33.58;28.90;;;-5.90;99.90;;;;;;6213011;23;20197;-75
2022/12/13 06:56:04;;;;;;;34.28;28.30;;;-5.90;99.90;;;;;;6212854;23;20178;-77
2022/12/13 06:58:31;;;;;;;41.53;30.35;;;-5.80;99.90;;;;;;6212532;23;20944;-76
2022/12/13 07:01:02;;;;;;;36.78;29.38;;;-5.70;99.90;;;;;;6212363;23;20265;-76
2022/12/13 07:03:30;;;;;;;31.90;26.88;;;-5.70;99.90;;;;;;6212610;23;20349;-76
2022/12/13 07:05:59;;;;;;;31.45;28.25;;;-5.60;99.90;;;;;;6212368;23;20197;-76
2022/12/13 07:08:26;;;;;;;31.90;28.67;;;-5.60;99.90;;;;;;6212448;23;20185;-77
2022/12/13 07:10:54;;;;;;;36.20;29.30;;;-5.50;99.90;;;;;;6212772;23;20410;-76
2022/12/13 07:13:21;;;;;;;29.80;26.70;;;-5.50;99.90;;;;;;6213150;23;20793;-76
2022/12/13 07:15:48;;;;;;;32.22;28.42;;;-5.40;99.90;;;;;;6212858;23;20792;-75
2022/12/13 07:18:15;;;;;;;35.03;28.70;;;-5.40;99.90;;;;;;6212561;23;20553;-75
2022/12/13 07:20:43;;;;;;;30.65;27.33;;;-5.30;99.90;;;;;;6212266;23;20241;-77
2022/12/13 07:23:12;;;;;;;30.65;27.38;;;-5.30;99.90;;;;;;6212144;23;20181;-75
2022/12/13 07:25:38;;;;;;;36.40;27.88;;;-5.30;99.90;;;;;;6213027;23;20175;-76
2022/12/13 07:28:07;;;;;;;31.58;27.77;;;-5.20;99.90;;;;;;6212733;23;20176;-74
2022/12/13 07:30:36;;;;;;;32.00;28.65;;;-5.20;99.90;;;;;;6212441;23;20208;-76
2022/12/13 07:33:03;;;;;;;32.72;27.85;;;-5.10;99.90;;;;;;6212472;23;20556;-76
2022/12/13 07:35:31;;;;;;;34.60;28.90;;;-5.10;99.90;;;;;;6211588;23;20182;-76
2022/12/13 07:37:58;;;;;;;34.80;29.23;;;-5.00;99.90;;;;;;6211462;23;20646;-76
2022/12/13 07:40:26;;;;;;;37.72;30.55;;;-4.80;99.90;;;;;;6212419;23;20176;-76
2022/12/13 07:42:55;;;;;;;37.40;33.47;;;-4.50;99.90;;;;;;6213164;23;20173;-76
2022/12/13 07:45:23;;;;;;;40.88;31.70;;;-4.10;99.90;;;;;;6212994;23;20429;-76
2022/12/13 07:47:50;;;;;;;35.03;30.90;;;-4.00;99.90;;;;;;6213178;23;20183;-76
2022/12/13 07:50:19;;;;;;;45.97;31.30;;;-4.00;99.90;;;;;;6212685;23;20406;-76
2022/12/13 07:52:46;;;;;;;56.67;33.17;;;-3.90;99.90;;;;;;6212223;23;20776;-75
2022/12/13 07:55:13;;;;;;;32.47;27.90;;;-3.70;99.90;;;;;;6212785;23;20424;-76
2022/12/13 07:57:41;;;;;;;34.27;28.40;;;-3.60;99.90;;;;;;6212775;23;20405;-75
2022/12/13 08:00:09;;;;;;;36.50;31.33;;;-3.40;99.90;;;;;;6213027;23;20412;-75
2022/12/13 08:02:36;;;;;;;34.93;29.47;;;-3.20;99.90;;;;;;6212632;23;20439;-75
2022/12/13 08:05:02;;;;;;;40.67;33.03;;;-3.10;99.90;;;;;;6212458;23;20428;-74
2022/12/13 08:07:29;;;;;;;35.30;30.17;;;-3.00;99.90;;;;;;6211962;23;20405;-76
2022/12/13 08:09:56;;;;;;;35.47;30.20;;;-3.10;99.90;;;;;;6212101;23;20888;-76
2022/12/13 08:12:23;;;;;;;40.50;32.30;;;-2.80;99.90;;;;;;6212250;23;20407;-76
2022/12/13 08:14:51;;;;;;;36.83;30.00;;;-2.40;99.90;;;;;;6213042;23;20414;-76
2022/12/13 08:17:17;;;;;;;36.87;30.50;;;-2.00;99.90;;;;;;6210111;23;20405;-76
2022/12/13 08:19:44;;;;;;;35.30;30.13;;;-1.70;99.90;;;;;;6212177;23;20395;-76
2022/12/13 08:22:12;;;;;;;37.03;30.97;;;-1.50;99.90;;;;;;6212168;23;20400;-76
2022/12/13 08:24:40;;;;;;;33.47;29.97;;;-1.30;99.90;;;;;;6212412;23;20462;-76
2022/12/13 08:27:06;;;;;;;32.90;28.10;;;-1.60;99.90;;;;;;6212398;23;20408;-76
2022/12/13 08:29:35;;;;;;;30.73;27.53;;;-1.80;99.90;;;;;;6212137;23;20412;-75
2022/12/13 08:32:04;;;;;;;28.43;25.53;;;-1.70;99.90;;;;;;6212174;23;20416;-75
2022/12/13 08:34:31;;;;;;;34.23;28.27;;;-1.50;99.90;;;;;;6211637;23;20440;-73
2022/12/13 08:36:58;;;;;;;31.93;27.30;;;-1.40;99.90;;;;;;6211419;23;20429;-75
2022/12/13 08:39:25;;;;;;;28.60;25.50;;;-1.00;99.90;;;;;;6212061;23;20407;-77
2022/12/13 08:41:52;;;;;;;32.63;26.47;;;-0.70;99.90;;;;;;6212056;23;20421;-77
2022/12/13 08:44:19;;;;;;;26.87;22.97;;;-0.30;99.90;;;;;;6211947;23;20966;-77
2022/12/13 08:46:46;;;;;;;27.10;24.33;;;-0.20;99.90;;;;;;6211619;23;20415;-76
2022/12/13 08:49:14;;;;;;;27.30;24.57;;;0.10;99.90;;;;;;6211904;23;20407;-76
2022/12/13 08:51:40;;;;;;;26.80;24.07;;;0.10;99.90;;;;;;6212038;23;20404;-75
2022/12/13 08:54:07;;;;;;;25.97;23.40;;;0.30;99.90;;;;;;6212263;23;20436;-75
2022/12/13 08:56:34;;;;;;;27.10;23.70;;;0.90;99.90;;;;;;6211794;23;20496;-73
2022/12/13 08:59:01;;;;;;;28.23;25.40;;;1.30;99.90;;;;;;6211757;23;20411;-73
2022/12/13 09:01:28;;;;;;;28.30;25.40;;;1.60;99.90;;;;;;6211691;23;20710;-72
2022/12/13 09:03:55;;;;;;;26.63;24.03;;;2.10;99.90;;;;;;6211588;23;20908;-73
2022/12/13 09:06:23;;;;;;;25.50;22.70;;;2.20;99.90;;;;;;6211800;23;20417;-73
2022/12/13 09:08:53;;;;;;;28.97;24.80;;;2.80;99.90;;;;;;6211889;23;20408;-73
2022/12/13 09:11:20;;;;;;;25.77;23.27;;;3.30;99.90;;;;;;6212272;23;20409;-73
2022/12/13 09:13:46;;;;;;;25.17;22.47;;;3.50;99.90;;;;;;6211714;23;20432;-73
2022/12/13 09:16:15;;;;;;;24.60;22.00;;;3.70;99.90;;;;;;6211625;23;20431;-73
2022/12/13 09:18:42;;;;;;;26.40;23.80;;;4.30;99.90;;;;;;6211336;23;20764;-73
2022/12/13 09:21:10;;;;;;;23.30;20.53;;;4.40;99.90;;;;;;6211665;23;20920;-72
2022/12/13 09:23:39;;;;;;;21.23;18.93;;;4.00;98.90;;;;;;6211656;23;20418;-72
2022/12/13 09:26:06;;;;;;;24.43;22.03;;;3.90;99.50;;;;;;6212133;23;20420;-72
2022/12/13 09:28:33;;;;;;;22.30;20.10;;;4.00;99.70;;;;;;6211286;23;20427;-72
2022/12/13 09:31:00;;;;;;;23.07;20.90;;;4.20;98.70;;;;;;6210657;23;20563;-72
2022/12/13 09:33:28;;;;;;;24.10;21.20;;;4.50;98.20;;;;;;6210591;23;20472;-73
2022/12/13 09:35:54;;;;;;;22.80;20.40;;;5.10;99.90;;;;;;6210770;23;20443;-73
2022/12/13 09:38:21;;;;;;;21.60;19.60;;;5.30;95.10;;;;;;6210775;23;20440;-72
2022/12/13 09:40:52;;;;;;;22.40;20.20;;;5.70;95.40;;;;;;6211128;23;20405;-74
2022/12/13 09:43:23;;;;;;;23.27;21.07;;;5.70;94.50;;;;;;6210918;23;20528;-72
2022/12/13 09:45:51;;;;;;;20.70;18.80;;;5.50;94.90;;;;;;6209847;23;20397;-73
2022/12/13 09:48:20;;;;;;;20.47;18.57;;;5.80;93.30;;;;;;6209668;23;20407;-73
2022/12/13 09:50:48;;;;;;;20.87;19.07;;;5.60;91.60;;;;;;6209760;23;20411;-73
2022/12/13 09:53:18;;;;;;;22.73;20.67;;;5.80;92.10;;;;;;6208748;23;20459;-73
2022/12/13 09:55:47;;;;;;;23.73;21.37;;;6.20;90.70;;;;;;6209312;23;20491;-72
2022/12/13 09:58:20;;;;;;;21.40;19.37;;;5.90;87.40;;;;;;6209679;23;20409;-73
2022/12/13 10:00:49;;;;;;;22.50;20.50;;;5.90;90.30;;;;;;6209388;23;20689;-72
2022/12/13 10:03:18;;;;;;;23.13;21.10;;;5.10;86.90;;;;;;6209415;23;20770;-72
2022/12/13 10:05:51;;;;;;;25.20;21.03;;;4.30;89.70;;;;;;6209952;23;20405;-71
2022/12/13 10:08:23;;;;;;;22.83;20.47;;;3.90;91.70;;;;;;6209633;23;20829;-72
2022/12/13 10:10:50;;;;;;;22.97;20.63;;;3.60;91.60;;;;;;6210102;23;20389;-74
2022/12/13 10:13:22;;;;;;;22.33;20.20;;;3.70;92.40;;;;;;6209915;23;20494;-74
2022/12/13 10:15:54;;;;;;;22.03;20.07;;;3.90;92.30;;;;;;6210539;23;20393;-74
2022/12/13 10:18:31;;;;;;;22.43;20.23;;;4.10;92.10;;;;;;6209978;23;20396;-73
2022/12/13 10:20:58;;;;;;;21.83;19.70;;;3.60;91.50;;;;;;6209751;23;20389;-73
2022/12/13 10:23:25;;;;;;;24.30;21.80;;;3.40;91.60;;;;;;6209783;23;20411;-72
2022/12/13 10:25:54;;;;;;;25.33;22.00;;;3.20;91.80;;;;;;6209925;23;20408;-71
2022/12/13 10:28:28;;;;;;;22.90;20.60;;;2.70;92.20;;;;;;6210084;23;20431;-72
2022/12/13 10:30:56;;;;;;;23.67;21.37;;;2.50;93.00;;;;;;6209653;23;20393;-75
2022/12/13 10:33:26;;;;;;;25.13;22.60;;;2.40;93.70;;;;;;6210075;23;20436;-72
2022/12/13 10:36:08;;;;;;;22.10;20.10;;;2.10;94.00;;;;;;6210176;23;20507;-73
2022/12/13 10:38:37;;;;;;;23.50;21.17;;;2.20;94.40;;;;;;6209546;23;20457;-73
2022/12/13 10:41:24;;;;;;;21.10;19.13;;;2.00;94.60;;;;;;6210073;23;20679;-74
2022/12/13 10:44:16;;;;;;;22.87;20.70;;;1.70;95.00;;;;;;6210317;23;20404;-74
2022/12/13 10:46:48;;;;;;;20.10;18.20;;;1.40;96.10;;;;;;6209527;23;20866;-73
2022/12/13 10:49:17;;;;;;;21.90;19.67;;;1.40;97.20;;;;;;6209686;23;20445;-72
2022/12/13 10:51:45;;;;;;;23.03;20.73;;;1.50;97.20;;;;;;6209502;23;20617;-73
2022/12/13 10:54:16;;;;;;;28.20;22.40;;;1.70;96.80;;;;;;6209435;23;20443;-73
2022/12/13 10:56:47;;;;;;;20.27;18.50;;;1.80;96.30;;;;;;6210112;23;20395;-73
2022/12/13 10:59:26;;;;;;;20.93;18.70;;;2.00;95.90;;;;;;6211489;23;20413;-73
2022/12/13 11:01:53;;;;;;;19.97;17.97;;;2.10;96.00;;;;;;6211498;23;20403;-74
2022/12/13 11:04:23;;;;;;;21.40;19.30;;;2.20;95.70;;;;;;6211258;23;20427;-73
2022/12/13 11:06:50;;;;;;;20.47;18.43;;;2.40;95.50;;;;;;6211362;23;20406;-73
2022/12/13 11:09:26;;;;;;;23.27;18.93;;;2.60;94.60;;;;;;6211390;23;20408;-74
2022/12/13 11:11:54;;;;;;;21.27;18.63;;;3.00;93.30;;;;;;6211604;23;20403;-73
2022/12/13 11:14:27;;;;;;;19.70;17.90;;;3.10;92.70;;;;;;6211529;23;20448;-74
2022/12/13 11:16:57;;;;;;;22.17;19.17;;;3.00;92.50;;;;;;6211973;23;20392;-74
2022/12/13 11:19:29;;;;;;;27.27;22.73;;;2.90;92.80;;;;;;6211996;23;20405;-74
2022/12/13 11:21:56;;;;;;;21.60;19.30;;;2.60;93.30;;;;;;6211116;23;20392;-74
2022/12/13 11:24:28;;;;;;;22.43;19.40;;;2.60;94.00;;;;;;6211570;23;20410;-74
2022/12/13 11:26:58;;;;;;;23.20;19.70;;;2.50;94.20;;;;;;6211209;23;20388;-74
2022/12/13 11:29:50;;;;;;;26.53;21.33;;;2.50;94.50;;;;;;6211662;23;20391;-73
2022/12/13 11:32:31;;;;;;;21.97;19.07;;;2.60;94.60;;;;;;6211296;23;20412;-72
2022/12/13 11:35:08;;;;;;;20.83;18.70;;;2.80;94.10;;;;;;6211292;23;20450;-74
2022/12/13 11:37:44;;;;;;;22.97;20.80;;;2.90;93.70;;;;;;6210980;23;20440;-73
2022/12/13 11:40:16;;;;;;;19.10;17.30;;;3.10;93.40;;;;;;6211105;23;20385;-73
2022/12/13 11:42:48;;;;;;;21.87;19.80;;;3.10;92.10;;;;;;6211009;23;20396;-74
2022/12/13 11:45:21;;;;;;;18.47;16.90;;;3.00;92.60;;;;;;6210798;23;20403;-74
2022/12/13 11:47:53;;;;;;;21.60;19.50;;;2.80;91.80;;;;;;6209088;23;20401;-73
2022/12/13 11:50:25;;;;;;;20.40;18.40;;;3.00;92.00;;;;;;6210812;23;20159;-73
2022/12/13 11:52:54;;;;;;;24.83;19.87;;;2.90;91.40;;;;;;6210488;23;20393;-72
2022/12/13 11:55:28;;;;;;;21.63;19.60;;;2.90;91.30;;;;;;6210891;23;20687;-73
2022/12/13 11:58:01;;;;;;;21.03;18.83;;;3.00;92.20;;;;;;6210509;23;20450;-73
2022/12/13 12:00:33;;;;;;;20.13;18.27;;;3.20;92.60;;;;;;6210861;23;20389;-74
2022/12/13 12:03:12;;;;;;;19.73;17.80;;;3.10;92.90;;;;;;6210838;23;20729;-73
2022/12/13 12:05:45;;;;;;;24.23;19.03;;;3.30;92.60;;;;;;6210671;23;20860;-74
2022/12/13 12:08:18;;;;;;;21.63;19.33;;;3.00;92.10;;;;;;6209999;23;20393;-73
2022/12/13 12:10:47;;;;;;;19.50;17.70;;;2.60;93.10;;;;;;6210361;23;20393;-72
2022/12/13 12:13:19;;;;;;;17.73;16.07;;;2.50;93.90;;;;;;6210690;23;20411;-72
2022/12/13 12:15:56;;;;;;;20.07;17.50;;;2.40;93.80;;;;;;6210516;23;20766;-72
2022/12/13 12:18:23;;;;;;;23.17;20.67;;;2.30;94.60;;;;;;6211096;23;20400;-72
2022/12/13 12:21:03;;;;;;;23.33;18.87;;;2.30;94.60;;;;;;6210200;23;20412;-74
2022/12/13 12:23:45;;;;;;;24.70;19.50;;;2.40;94.40;;;;;;6210443;23;20392;-74
2022/12/13 12:26:15;;;;;;;18.70;16.60;;;2.30;94.60;;;;;;6210617;23;20400;-75
2022/12/13 12:29:10;;;;;;;21.33;19.03;;;2.20;94.30;;;;;;6210467;23;20409;-73
2022/12/13 12:31:48;;;;;;;20.83;18.40;;;2.20;94.60;;;;;;6211015;23;20396;-75
2022/12/13 12:34:27;;;;;;;20.77;18.63;;;2.20;94.90;;;;;;6209873;23;20453;-73
2022/12/13 12:37:04;;;;;;;20.93;18.00;;;2.30;94.90;;;;;;6210387;23;20422;-72
2022/12/13 12:39:42;;;;;;;18.57;16.73;;;2.20;94.70;;;;;;6210460;23;20403;-74
2022/12/13 12:42:39;;;;;;;17.57;14.83;;;2.10;94.50;;;;;;6210846;23;20404;-73
2022/12/13 12:45:23;;;;;;;19.57;17.80;;;1.90;94.60;;;;;;6210593;23;20404;-73
2022/12/13 12:47:58;;;;;;;20.20;18.50;;;1.90;94.80;;;;;;6210472;23;20386;-72
2022/12/13 12:50:35;;;;;;;20.50;17.87;;;1.80;95.10;;;;;;6210762;23;20384;-73